Paw Paw, Illinois
Current Conditions -  °F | °C
As of 7:15 PM on Tuesday 27 Jan 2015 (Local Time) from KRPJ Reporting Station
Scattered Clouds Scattered Clouds  
Wind Chill: 24°   Ceiling: Unl
Heat Index: 24°   Visibility: 10mi
Dew Point: 20°   Wind: 0mph
Humidity: 85%   Direction: NA
Pressure: 30.23"   Gusts: NA
Location:  41.69°N, 88.98°W
Report Text: KRPJ 280115Z AUTO 00000KT 10SM SCT023 M05/M07 A3023 RMK AO2 T10461067
Loading
Personal Weather Stations






























Interactive Weather Map New forecast layout! Learn more

10-Day Weather Forecast

Advertisements
Track Severe Weather on mobile